Time;durP1;ratioP1;P1;durP2;ratioP2;P2;SDS_P1;SDS_P2;PMS_P1;PMS_P2;Temp;Humidity;BMP_temperature;BMP_pressure;BME280_temperature;BME280_humidity;BME280_pressure;Samples;Min_cycle;Max_cycle;Signal;HPM_P1;HPM_P2
2022/02/19 00:02:00;;;;;;;8.13;1.60;;;;;;;3.73;100.00;97894.09;7398009;19;20430;-52
2022/02/19 00:04:33;;;;;;;11.73;2.10;;;;;;;3.63;100.00;97877.72;7386811;19;20980;-47
2022/02/19 00:07:02;;;;;;;8.07;1.63;;;;;;;3.60;100.00;97895.50;7392136;19;20393;-48
2022/02/19 00:09:32;;;;;;;12.57;1.87;;;;;;;3.68;100.00;97900.78;7387120;19;20430;-48
2022/02/19 00:12:04;;;;;;;14.77;2.30;;;;;;;3.69;100.00;97848.94;7391562;19;20402;-47
2022/02/19 00:14:36;;;;;;;5.67;1.40;;;;;;;3.77;100.00;97941.78;7386703;19;20414;-48
2022/02/19 00:17:10;;;;;;;7.60;1.50;;;;;;;3.78;100.00;97941.84;7391264;19;20739;-52
2022/02/19 00:19:42;;;;;;;15.43;1.60;;;;;;;4.06;100.00;97939.06;7389939;19;20429;-47
2022/02/19 00:22:14;;;;;;;8.30;2.80;;;;;;;4.07;100.00;97947.56;7388060;19;20386;-47
2022/02/19 00:24:46;;;;;;;6.40;1.50;;;;;;;3.89;100.00;97921.69;7388813;19;20433;-49
2022/02/19 00:27:17;;;;;;;6.30;1.63;;;;;;;3.68;100.00;97926.28;7388526;19;20389;-47
2022/02/19 00:29:49;;;;;;;8.30;1.17;;;;;;;3.37;100.00;97917.06;7389457;19;21034;-48
2022/02/19 00:32:19;;;;;;;10.53;1.73;;;;;;;3.11;100.00;97911.28;7388085;19;20735;-53
2022/02/19 00:34:48;;;;;;;3.73;1.23;;;;;;;3.13;100.00;97885.84;7388728;19;20397;-50
2022/02/19 00:37:19;;;;;;;11.93;1.67;;;;;;;3.03;100.00;97857.59;7389030;19;20427;-50
2022/02/19 00:39:48;;;;;;;11.07;2.00;;;;;;;3.06;100.00;97867.88;7390021;19;20405;-47
2022/02/19 00:42:18;;;;;;;19.27;3.03;;;;;;;3.18;100.00;97859.66;7388068;19;20733;-49
2022/02/19 00:44:50;;;;;;;9.70;1.90;;;;;;;3.23;100.00;97841.97;7388898;19;20424;-50
2022/02/19 00:47:28;;;;;;;13.63;2.00;;;;;;;3.23;100.00;97836.84;7388567;19;20400;-55
2022/02/19 00:49:58;;;;;;;7.10;1.63;;;;;;;3.26;100.00;97847.13;7389816;19;20404;-50
2022/02/19 00:52:27;;;;;;;18.43;1.60;;;;;;;3.13;100.00;97861.22;7389371;19;20390;-52
2022/02/19 00:55:00;;;;;;;12.37;2.03;;;;;;;2.92;100.00;97505.00;7390601;19;20425;-50
2022/02/19 00:57:29;;;;;;;6.47;1.37;;;;;;;2.53;100.00;97522.00;7385997;19;20386;-48
2022/02/19 01:00:05;;;;;;;14.80;2.10;;;;;;;2.51;100.00;97496.50;7392790;19;20456;-54
2022/02/19 01:02:35;;;;;;;7.53;1.90;;;;;;;2.43;100.00;97526.03;7387077;19;20419;-51
2022/02/19 01:05:11;;;;;;;9.50;1.80;;;;;;;2.36;100.00;97511.44;7392567;19;20419;-55
2022/02/19 01:07:48;;;;;;;9.57;1.73;;;;;;;2.33;100.00;97524.09;7391345;19;20444;-58
2022/02/19 01:10:23;;;;;;;8.13;2.00;;;;;;;2.23;100.00;97483.19;7394361;19;20413;-55
2022/02/19 01:12:53;;;;;;;10.03;2.03;;;;;;;2.16;100.00;97532.19;7392539;19;20766;-54
2022/02/19 01:15:25;;;;;;;8.67;1.63;;;;;;;2.16;100.00;97520.31;7393514;19;20469;-58
2022/02/19 01:18:00;;;;;;;3.87;0.90;;;;;;;2.12;100.00;97530.41;7389770;19;21314;-59
2022/02/19 01:20:31;;;;;;;6.37;1.53;;;;;;;2.10;100.00;97543.06;7394604;19;20395;-54
2022/02/19 01:23:00;;;;;;;10.00;1.60;;;;;;;2.10;100.00;97511.72;7390630;19;20760;-54
2022/02/19 01:25:33;;;;;;;9.47;2.40;;;;;;;1.97;100.00;97549.56;7389658;19;20403;-55
2022/02/19 01:28:07;;;;;;;8.93;1.70;;;;;;;1.92;100.00;97543.50;7372170;19;20386;-57
2022/02/19 01:30:39;;;;;;;7.03;1.53;;;;;;;1.88;100.00;97593.41;7389606;19;20384;-52
2022/02/19 01:33:09;;;;;;;8.30;1.17;;;;;;;1.82;100.00;97559.34;7385890;19;20438;-56
2022/02/19 01:35:39;;;;;;;6.70;1.60;;;;;;;1.73;100.00;97563.38;7389739;19;20407;-54
2022/02/19 01:38:08;;;;;;;8.13;1.48;;;;;;;1.72;100.00;97551.47;7385679;19;20422;-53
2022/02/19 01:40:38;;;;;;;12.75;2.13;;;;;;;1.70;100.00;97578.53;7390771;19;20131;-56
2022/02/19 01:43:10;;;;;;;11.10;1.50;;;;;;;1.63;100.00;97619.84;7387497;19;20194;-57
2022/02/19 01:45:42;;;;;;;5.07;1.43;;;;;;;1.59;100.00;97593.50;7388347;19;20447;-53
2022/02/19 01:48:12;;;;;;;7.22;1.40;;;;;;;1.56;100.00;97630.69;7389856;19;20837;-53
2022/02/19 01:50:41;;;;;;;12.32;1.60;;;;;;;1.55;100.00;97639.13;7392915;19;20127;-52
2022/02/19 01:53:12;;;;;;;7.70;1.90;;;;;;;1.48;100.00;97653.34;7388262;19;20201;-53
2022/02/19 01:55:42;;;;;;;4.70;1.47;;;;;;;1.44;100.00;97651.53;7394452;19;20162;-55
2022/02/19 01:58:13;;;;;;;11.25;2.42;;;;;;;1.47;100.00;97654.16;7390731;19;20410;-52
2022/02/19 02:00:47;;;;;;;11.80;1.45;;;;;;;1.55;100.00;97651.84;7398585;19;20238;-56
2022/02/19 02:03:18;;;;;;;17.50;1.75;;;;;;;1.61;100.00;97650.34;7395335;19;20194;-53
2022/02/19 02:05:51;;;;;;;8.10;1.60;;;;;;;1.70;100.00;97674.28;7396449;19;20169;-48
2022/02/19 02:08:22;;;;;;;6.70;1.17;;;;;;;1.84;100.00;97622.13;7395410;19;20201;-49
2022/02/19 02:10:55;;;;;;;16.83;2.00;;;;;;;1.88;100.00;97671.38;7396271;19;20402;-51
2022/02/19 02:13:24;;;;;;;5.80;1.97;;;;;;;1.94;100.00;97674.06;7394761;19;20403;-50
2022/02/19 02:15:57;;;;;;;14.77;1.83;;;;;;;1.98;100.00;97660.63;7395940;19;20426;-50
2022/02/19 02:18:30;;;;;;;6.60;1.10;;;;;;;2.05;100.00;97697.25;7393794;19;20428;-51
2022/02/19 02:20:59;;;;;;;21.20;2.93;;;;;;;2.10;100.00;97710.94;7402137;19;20398;-52
2022/02/19 02:23:32;;;;;;;9.57;1.87;;;;;;;2.12;100.00;97718.63;7394645;19;20419;-50
2022/02/19 02:26:06;;;;;;;8.53;1.63;;;;;;;2.13;100.00;97710.16;7398553;19;20383;-53
2022/02/19 02:28:37;;;;;;;5.10;1.73;;;;;;;2.19;100.00;97709.50;7394851;19;20799;-52
2022/02/19 02:31:12;;;;;;;9.37;1.67;;;;;;;2.19;100.00;97742.56;7399698;19;20411;-54
2022/02/19 02:33:43;;;;;;;11.13;2.87;;;;;;;2.23;100.00;97755.41;7390707;19;20929;-54
2022/02/19 02:36:13;;;;;;;11.70;1.90;;;;;;;2.28;100.00;97743.66;7398115;19;20367;-54
2022/02/19 02:38:46;;;;;;;15.80;2.10;;;;;;;2.38;100.00;97741.34;7381575;19;20942;-54
2022/02/19 02:41:17;;;;;;;9.47;2.43;;;;;;;2.41;100.00;97756.72;7397925;19;20386;-53
2022/02/19 02:43:46;;;;;;;17.57;2.50;;;;;;;2.43;100.00;97749.97;7391875;19;20411;-52
2022/02/19 02:46:20;;;;;;;9.73;2.03;;;;;;;2.45;100.00;97786.50;7398630;19;20395;-53
2022/02/19 02:48:49;;;;;;;14.43;2.30;;;;;;;2.47;100.00;97772.16;7397138;19;20440;-53
2022/02/19 02:51:22;;;;;;;8.63;2.40;;;;;;;2.54;100.00;97780.78;7399152;19;20386;-52
2022/02/19 02:53:55;;;;;;;13.90;1.47;;;;;;;2.55;100.00;97785.06;7396323;19;20450;-53
2022/02/19 02:56:27;;;;;;;16.63;2.53;;;;;;;2.55;100.00;97782.50;7400921;19;21031;-56
2022/02/19 02:58:59;;;;;;;9.23;1.33;;;;;;;2.59;100.00;97791.09;7397528;19;21015;-50
2022/02/19 03:01:31;;;;;;;14.40;2.93;;;;;;;2.61;100.00;97800.50;7401369;19;20396;-51
2022/02/19 03:04:02;;;;;;;20.40;2.67;;;;;;;2.65;100.00;97793.78;7395043;19;20455;-51
2022/02/19 03:06:32;;;;;;;16.60;2.30;;;;;;;2.66;100.00;97879.56;7401051;19;20395;-51
2022/02/19 03:09:04;;;;;;;18.63;2.90;;;;;;;2.66;100.00;97861.75;7393552;19;20446;-53
2022/02/19 03:11:35;;;;;;;19.60;2.70;;;;;;;2.60;100.00;97915.03;7397928;19;20401;-49
2022/02/19 03:14:05;;;;;;;22.03;3.60;;;;;;;2.54;100.00;97913.16;7396281;19;20460;-56
2022/02/19 03:16:37;;;;;;;17.80;2.77;;;;;;;2.24;100.00;97937.78;7399599;19;20417;-52
2022/02/19 03:19:08;;;;;;;10.23;1.50;;;;;;;2.11;100.00;97925.50;7396678;19;20784;-53
2022/02/19 03:21:37;;;;;;;9.70;1.67;;;;;;;1.95;100.00;97924.19;7400224;19;20403;-55
2022/02/19 03:24:10;;;;;;;13.13;1.80;;;;;;;1.85;100.00;97935.75;7396018;19;20791;-55
2022/02/19 03:26:39;;;;;;;18.67;2.20;;;;;;;1.83;100.00;97935.69;7399242;19;21018;-55
2022/02/19 03:29:09;;;;;;;9.80;1.83;;;;;;;1.84;100.00;97962.84;7395642;19;20439;-49
2022/02/19 03:31:38;;;;;;;12.10;2.43;;;;;;;1.82;100.00;97973.78;7397858;19;20400;-52
2022/02/19 03:34:15;;;;;;;5.93;1.90;;;;;;;1.78;100.00;97990.59;7395613;19;20442;-52
2022/02/19 03:36:44;;;;;;;4.67;0.93;;;;;;;1.66;100.00;97983.47;7399691;19;20396;-52
2022/02/19 03:39:16;;;;;;;5.00;0.73;;;;;;;1.49;100.00;98018.47;7396009;19;20961;-56
2022/02/19 03:41:48;;;;;;;6.63;1.00;;;;;;;1.35;100.00;98018.84;7399838;19;20911;-54
2022/02/19 03:44:20;;;;;;;9.25;0.88;;;;;;;1.31;100.00;98028.84;7394743;19;20435;-51
2022/02/19 03:46:50;;;;;;;1.52;0.50;;;;;;;1.28;100.00;98031.31;7399215;19;20138;-53
2022/02/19 03:49:22;;;;;;;2.95;1.00;;;;;;;1.25;100.00;98037.13;7396083;19;20198;-51
2022/02/19 03:51:53;;;;;;;3.17;0.77;;;;;;;1.24;100.00;98055.75;7397866;19;20191;-55
2022/02/19 03:54:27;;;;;;;1.70;0.47;;;;;;;1.20;100.00;98080.16;7394529;19;20198;-52
2022/02/19 03:56:56;;;;;;;4.80;0.60;;;;;;;1.18;100.00;98086.84;7399568;19;20139;-54
2022/02/19 03:59:28;;;;;;;3.78;0.70;;;;;;;1.20;100.00;98118.28;7396504;19;20198;-49
2022/02/19 04:01:58;;;;;;;7.47;1.02;;;;;;;1.21;100.00;98124.19;7399391;19;20135;-51
2022/02/19 04:04:27;;;;;;;2.15;0.60;;;;;;;1.22;100.00;98133.56;7394986;19;20212;-51
2022/02/19 04:06:58;;;;;;;2.00;0.60;;;;;;;1.22;100.00;98156.41;7398447;19;20135;-54
2022/02/19 04:09:30;;;;;;;3.50;0.85;;;;;;;1.24;100.00;98148.84;7395901;19;20207;-54
2022/02/19 04:12:02;;;;;;;3.08;0.73;;;;;;;1.29;100.00;98182.94;7397230;19;20137;-51
2022/02/19 04:14:32;;;;;;;5.72;1.52;;;;;;;1.29;100.00;98180.38;7392482;19;20649;-54
2022/02/19 04:17:01;;;;;;;3.15;0.75;;;;;;;1.35;100.00;98200.94;7396621;19;20141;-52
2022/02/19 04:19:31;;;;;;;5.72;0.82;;;;;;;1.33;100.00;98205.13;7394814;19;20194;-53
2022/02/19 04:22:00;;;;;;;7.00;0.88;;;;;;;1.37;100.00;98214.56;7398085;19;20130;-53
2022/02/19 04:24:32;;;;;;;1.67;0.50;;;;;;;1.44;100.00;98230.94;7392823;19;20198;-51
2022/02/19 04:27:02;;;;;;;4.23;0.60;;;;;;;1.53;100.00;98255.81;7397694;19;20485;-56
2022/02/19 04:29:31;;;;;;;5.75;1.35;;;;;;;1.59;100.00;98253.50;7394691;19;20435;-53
2022/02/19 04:32:01;;;;;;;8.10;1.40;;;;;;;1.55;100.00;98266.91;7397677;19;20461;-55
2022/02/19 04:34:33;;;;;;;5.13;1.20;;;;;;;1.52;100.00;98287.09;7392890;19;20431;-53
2022/02/19 04:37:02;;;;;;;6.18;1.30;;;;;;;1.52;100.00;98302.34;7397572;19;20391;-50
2022/02/19 04:39:34;;;;;;;12.20;1.02;;;;;;;1.53;100.00;98302.41;7392134;19;20594;-53
2022/02/19 04:42:05;;;;;;;8.13;1.85;;;;;;;1.50;100.00;98312.47;7394290;19;20230;-52
2022/02/19 04:44:38;;;;;;;9.33;1.00;;;;;;;1.46;100.00;98321.66;7388845;19;20197;-53
2022/02/19 04:47:12;;;;;;;4.13;0.70;;;;;;;1.43;100.00;98328.31;7392222;19;20383;-58
2022/02/19 04:49:43;;;;;;;9.00;1.02;;;;;;;1.42;100.00;98336.72;7392882;19;20177;-48
2022/02/19 04:52:16;;;;;;;1.88;0.90;;;;;;;1.37;100.00;98361.94;7390540;19;20609;-54
2022/02/19 04:54:48;;;;;;;2.33;0.65;;;;;;;1.51;100.00;98371.78;7391410;19;20162;-53
2022/02/19 04:57:18;;;;;;;5.57;1.37;;;;;;;1.55;100.00;98366.03;7389712;19;20147;-52
2022/02/19 04:59:47;;;;;;;37.15;2.35;;;;;;;1.51;100.00;98384.50;7393025;19;20394;-52
2022/02/19 05:02:19;;;;;;;9.60;2.20;;;;;;;1.42;100.00;98374.81;7390747;19;20142;-52
2022/02/19 05:04:49;;;;;;;3.92;0.88;;;;;;;1.43;100.00;98395.22;7390932;19;20404;-50
2022/02/19 05:07:19;;;;;;;10.80;2.10;;;;;;;1.43;100.00;98382.53;7389121;19;20159;-54
2022/02/19 05:09:51;;;;;;;4.23;0.50;;;;;;;1.43;100.00;98407.94;7392692;19;20126;-53
2022/02/19 05:12:23;;;;;;;13.50;0.70;;;;;;;1.41;100.00;98399.41;7390250;19;20403;-48
2022/02/19 05:14:55;;;;;;;3.85;1.60;;;;;;;1.52;100.00;98431.97;7392359;19;20169;-50
2022/02/19 05:17:25;;;;;;;9.77;1.50;;;;;;;1.58;100.00;98437.31;7390373;19;20123;-52
2022/02/19 05:19:54;;;;;;;7.18;1.15;;;;;;;1.53;100.00;98454.94;7392264;19;20384;-56
2022/02/19 05:22:24;;;;;;;13.47;2.70;;;;;;;1.68;100.00;98471.59;7388543;19;20134;-53
2022/02/19 05:24:58;;;;;;;8.50;1.30;;;;;;;1.73;100.00;98462.50;7390933;19;20404;-53
2022/02/19 05:27:27;;;;;;;4.13;0.90;;;;;;;1.64;100.00;98483.31;7385498;19;20134;-54
2022/02/19 05:29:57;;;;;;;3.87;1.20;;;;;;;1.66;100.00;98491.03;7387965;19;20379;-53
2022/02/19 05:32:26;;;;;;;6.10;0.90;;;;;;;1.72;100.00;98492.16;7384397;19;20399;-53
2022/02/19 05:34:57;;;;;;;5.00;1.13;;;;;;;1.78;100.00;98508.47;7393018;19;20189;-50
2022/02/19 05:37:28;;;;;;;8.57;1.93;;;;;;;1.79;100.00;98507.66;7371278;19;20398;-52
2022/02/19 05:40:01;;;;;;;7.90;1.73;;;;;;;1.88;100.00;98576.69;7394544;19;20370;-51
2022/02/19 05:42:30;;;;;;;11.03;2.20;;;;;;;1.89;100.00;98583.50;7394606;19;20768;-50
2022/02/19 05:45:00;;;;;;;6.30;1.23;;;;;;;1.62;100.00;98596.81;7397418;19;20430;-53
2022/02/19 05:47:29;;;;;;;10.20;1.20;;;;;;;1.43;100.00;98611.25;7397064;19;20390;-52
2022/02/19 05:49:59;;;;;;;14.27;3.37;;;;;;;1.09;100.00;98614.84;7399688;19;20383;-52
2022/02/19 05:52:29;;;;;;;3.47;0.98;;;;;;;0.88;100.00;98627.44;7396891;19;20541;-55
2022/02/19 05:55:01;;;;;;;4.57;1.13;;;;;;;0.82;100.00;98635.63;7397206;19;20159;-54
2022/02/19 05:57:30;;;;;;;3.80;1.23;;;;;;;0.89;100.00;98652.91;7397029;19;20591;-56
2022/02/19 06:00:03;;;;;;;10.60;1.63;;;;;;;0.89;100.00;98617.34;7400001;19;20127;-53
2022/02/19 06:02:36;;;;;;;3.88;0.80;;;;;;;0.85;100.00;98614.56;7396015;19;20193;-55
2022/02/19 06:05:09;;;;;;;7.88;1.42;;;;;;;0.87;100.00;98618.94;7396680;19;20163;-54
2022/02/19 06:07:41;;;;;;;4.38;0.95;;;;;;;0.92;100.00;98631.88;7394576;19;20186;-50
2022/02/19 06:10:17;;;;;;;8.10;0.80;;;;;;;0.91;100.00;98643.69;7399451;19;20134;-54
2022/02/19 06:12:47;;;;;;;11.07;1.60;;;;;;;0.98;100.00;98651.59;7393894;19;20193;-55
2022/02/19 06:15:16;;;;;;;6.43;1.77;;;;;;;1.12;100.00;98660.69;7396719;19;20169;-53
2022/02/19 06:17:46;;;;;;;1.63;0.50;;;;;;;1.17;100.00;98679.56;7395467;19;20191;-54
2022/02/19 06:20:18;;;;;;;5.55;1.20;;;;;;;1.15;100.00;98696.41;7398761;19;20486;-54
2022/02/19 06:22:48;;;;;;;5.30;1.08;;;;;;;1.17;100.00;98704.97;7395644;19;20193;-51
2022/02/19 06:25:21;;;;;;;3.67;1.13;;;;;;;1.18;100.00;98731.25;7395863;19;20618;-54
2022/02/19 06:27:51;;;;;;;4.50;0.60;;;;;;;1.15;100.00;98742.16;7397331;19;20493;-51
2022/02/19 06:30:20;;;;;;;2.95;1.15;;;;;;;1.09;100.00;98752.03;7398908;19;20127;-51
2022/02/19 06:32:55;;;;;;;11.32;1.05;;;;;;;0.88;100.00;98762.00;7393664;19;20209;-55
2022/02/19 06:35:25;;;;;;;4.82;1.10;;;;;;;0.71;100.00;98768.81;7395769;19;20166;-50
2022/02/19 06:37:54;;;;;;;10.60;1.17;;;;;;;0.63;100.00;98755.75;7393807;19;20196;-52
2022/02/19 06:40:27;;;;;;;3.55;0.90;;;;;;;0.66;100.00;98766.91;7398530;19;20134;-51
2022/02/19 06:42:57;;;;;;;3.90;0.63;;;;;;;0.66;100.00;98768.56;7396187;19;20192;-50
2022/02/19 06:45:27;;;;;;;4.55;0.60;;;;;;;0.67;100.00;98775.41;7394943;19;20165;-49
2022/02/19 06:47:56;;;;;;;4.10;0.82;;;;;;;0.66;100.00;98797.38;7392697;19;20278;-50
2022/02/19 06:50:27;;;;;;;3.70;0.60;;;;;;;0.68;100.00;98792.38;7397909;19;20139;-52
2022/02/19 06:52:57;;;;;;;4.90;0.85;;;;;;;0.76;100.00;98797.81;7393046;19;20190;-51
2022/02/19 06:55:29;;;;;;;3.75;1.00;;;;;;;0.84;100.00;98803.28;7395190;19;20507;-53
2022/02/19 06:57:58;;;;;;;5.10;1.23;;;;;;;0.89;100.00;98817.09;7393715;19;20186;-52
2022/02/19 07:00:28;;;;;;;4.03;0.60;;;;;;;0.94;100.00;98823.25;7399289;19;20139;-50
2022/02/19 07:02:57;;;;;;;3.13;0.52;;;;;;;0.88;100.00;98833.97;7393997;19;20254;-53
2022/02/19 07:05:27;;;;;;;5.20;1.15;;;;;;;0.86;100.00;98824.56;7394614;19;20162;-56
2022/02/19 07:08:01;;;;;;;1.92;0.50;;;;;;;0.84;100.00;98842.25;7393057;19;20266;-51
2022/02/19 07:10:36;;;;;;;7.15;1.63;;;;;;;0.77;100.00;98837.66;7401016;19;20135;-53
2022/02/19 07:13:09;;;;;;;6.97;1.08;;;;;;;0.79;100.00;98848.75;7390318;19;20186;-52
2022/02/19 07:15:41;;;;;;;3.55;0.60;;;;;;;0.78;100.00;98852.09;7399342;19;20636;-54
2022/02/19 07:18:15;;;;;;;11.00;1.23;;;;;;;0.73;100.00;98869.66;7392553;19;20197;-53
2022/02/19 07:20:47;;;;;;;3.38;0.95;;;;;;;0.73;100.00;98863.69;7397044;19;20127;-54
2022/02/19 07:23:19;;;;;;;4.50;0.88;;;;;;;0.73;100.00;98886.53;7392847;19;20190;-52
2022/02/19 07:25:53;;;;;;;10.38;1.30;;;;;;;0.79;100.00;98904.63;7394390;19;20178;-53
2022/02/19 07:28:22;;;;;;;6.40;1.20;;;;;;;0.86;100.00;98910.91;7391621;19;20532;-50
2022/02/19 07:30:52;;;;;;;5.63;1.20;;;;;;;0.89;100.00;98911.94;7396517;19;20119;-52
2022/02/19 07:33:21;;;;;;;6.47;1.63;;;;;;;0.96;100.00;98922.41;7391431;19;20203;-51
2022/02/19 07:35:53;;;;;;;15.75;1.40;;;;;;;1.04;100.00;98936.34;7394272;19;20162;-51
2022/02/19 07:38:22;;;;;;;11.02;2.45;;;;;;;1.08;100.00;98950.97;7392468;19;20547;-52
2022/02/19 07:40:54;;;;;;;17.05;1.60;;;;;;;1.06;100.00;98942.38;7396290;19;20233;-50
2022/02/19 07:43:24;;;;;;;9.13;1.92;;;;;;;1.01;100.00;98966.66;7391646;19;20186;-49
2022/02/19 07:45:56;;;;;;;5.65;1.33;;;;;;;1.07;100.00;98961.91;7394045;19;20773;-55
2022/02/19 07:48:26;;;;;;;15.13;2.97;;;;;;;1.12;100.00;98972.31;7392511;19;20201;-47
2022/02/19 07:59:06;;;;;;;11.93;1.63;;;;;;;1.30;100.00;98995.22;7392626;19;20190;-49
2022/02/19 08:01:36;;;;;;;9.57;1.98;;;;;;;1.25;100.00;98989.03;7395377;19;20137;-50
2022/02/19 08:04:06;;;;;;;10.77;2.25;;;;;;;1.29;100.00;98988.41;7390420;19;20190;-47
2022/02/19 08:06:36;;;;;;;5.70;2.10;;;;;;;1.38;100.00;98988.84;7395424;19;20127;-54
2022/02/19 08:09:07;;;;;;;6.50;1.60;;;;;;;1.48;100.00;99005.44;7391986;19;20194;-48
2022/02/19 08:11:40;;;;;;;11.35;1.23;;;;;;;1.57;100.00;99005.03;7394786;19;20123;-53
2022/02/19 08:14:09;;;;;;;5.00;1.13;;;;;;;1.65;100.00;98997.78;7387855;19;20198;-52
2022/02/19 08:16:39;;;;;;;9.88;1.30;;;;;;;1.72;100.00;99018.53;7394944;19;20390;-50
2022/02/19 08:19:10;;;;;;;4.40;1.07;;;;;;;1.79;100.00;99016.28;7389131;19;20190;-52
2022/02/19 08:21:40;;;;;;;6.67;0.73;;;;;;;1.85;100.00;99036.94;7394559;19;20557;-53
2022/02/19 08:24:09;;;;;;;4.13;1.47;;;;;;;1.91;100.00;99036.34;7389530;19;20420;-52
2022/02/19 08:26:44;;;;;;;4.37;1.47;;;;;;;1.97;100.00;99045.16;7394604;19;20415;-52
2022/02/19 08:29:14;;;;;;;5.20;0.70;;;;;;;2.02;100.00;99035.19;7391221;19;20441;-52
2022/02/19 08:31:46;;;;;;;5.47;0.60;;;;;;;2.09;100.00;99027.06;7394494;19;20463;-49
2022/02/19 08:34:16;;;;;;;4.70;1.43;;;;;;;2.10;100.00;99064.41;7391053;19;20526;-53
2022/02/19 08:36:45;;;;;;;1.67;0.60;;;;;;;2.16;100.00;99049.44;7394578;19;20459;-53
2022/02/19 08:39:16;;;;;;;5.30;1.50;;;;;;;2.17;100.00;99057.97;7390674;19;20402;-52
2022/02/19 08:41:49;;;;;;;10.27;1.07;;;;;;;2.21;100.00;99056.44;7394086;19;20390;-50
2022/02/19 08:44:21;;;;;;;4.70;1.07;;;;;;;2.15;100.00;99051.91;7388093;19;20951;-48
2022/02/19 08:46:51;;;;;;;5.07;1.07;;;;;;;2.15;100.00;99046.81;7394108;19;20477;-51
2022/02/19 08:49:23;;;;;;;7.57;0.80;;;;;;;2.13;100.00;99059.50;7390449;19;20421;-51
2022/02/19 08:51:52;;;;;;;2.90;0.93;;;;;;;2.12;100.00;99080.66;7393941;19;20383;-51
2022/02/19 08:54:22;;;;;;;4.20;0.93;;;;;;;2.12;100.00;99072.13;7388613;19;20403;-47
2022/02/19 08:56:56;;;;;;;5.23;1.43;;;;;;;2.11;100.00;99066.16;7393756;19;20901;-51
2022/02/19 08:59:28;;;;;;;2.33;0.73;;;;;;;2.06;100.00;99087.09;7390546;19;20418;-52
2022/02/19 09:01:58;;;;;;;7.60;1.23;;;;;;;2.06;100.00;99092.19;7395547;19;20399;-49
2022/02/19 09:04:28;;;;;;;4.20;1.20;;;;;;;2.04;100.00;99101.44;7391393;19;20442;-48
2022/02/19 09:06:59;;;;;;;2.35;0.90;;;;;;;2.04;100.00;99111.59;7391911;19;20401;-49
2022/02/19 09:09:29;;;;;;;6.23;1.47;;;;;;;2.08;100.00;99109.28;7389510;19;20190;-51
2022/02/19 09:12:01;;;;;;;3.83;1.73;;;;;;;2.10;100.00;99128.03;7393764;19;20400;-49
2022/02/19 09:14:31;;;;;;;4.50;1.20;;;;;;;2.14;100.00;99121.41;7388090;19;20422;-48
2022/02/19 09:17:01;;;;;;;5.27;1.10;;;;;;;2.12;100.00;99141.72;7396426;19;20381;-47
2022/02/19 09:19:30;;;;;;;6.03;1.03;;;;;;;1.94;100.00;99148.44;7387091;19;20396;-55
2022/02/19 09:22:01;;;;;;;7.00;1.30;;;;;;;1.89;100.00;99160.91;7393029;19;20380;-50
2022/02/19 09:24:31;;;;;;;3.73;0.97;;;;;;;1.85;100.00;99164.09;7388050;19;20431;-51
2022/02/19 09:27:03;;;;;;;1.40;0.57;;;;;;;1.81;100.00;99178.34;7393236;19;20785;-49
2022/02/19 09:29:36;;;;;;;1.43;0.70;;;;;;;1.73;100.00;99172.84;7389583;19;20407;-52
2022/02/19 09:32:08;;;;;;;1.83;0.97;;;;;;;1.65;100.00;99197.00;7393007;19;20387;-50
2022/02/19 09:34:37;;;;;;;1.30;0.55;;;;;;;1.63;100.00;99210.44;7389828;19;20487;-49
2022/02/19 09:37:08;;;;;;;1.20;0.50;;;;;;;1.64;100.00;99197.78;7392719;19;20131;-54
2022/02/19 09:39:38;;;;;;;3.00;0.60;;;;;;;1.48;100.00;99219.84;7391723;19;20478;-48
2022/02/19 09:42:13;;;;;;;2.47;0.70;;;;;;;1.42;100.00;99219.53;7395332;19;20378;-50
2022/02/19 09:44:51;;;;;;;1.30;0.50;;;;;;;1.38;100.00;99260.81;7390140;19;20468;-52
2022/02/19 09:47:26;;;;;;;3.23;1.20;;;;;;;1.23;100.00;99265.94;7395219;19;20131;-52
2022/02/19 09:49:56;;;;;;;46.90;9.47;;;;;;;1.12;100.00;99244.16;7393832;19;20738;-49
2022/02/19 09:52:26;;;;;;;1.70;0.60;;;;;;;1.00;100.00;99272.28;7389043;19;20394;-52
2022/02/19 09:54:59;;;;;;;5.90;1.25;;;;;;;0.98;100.00;99282.38;7394301;19;20170;-51
2022/02/19 09:57:32;;;;;;;2.83;0.52;;;;;;;1.04;100.00;99295.38;7389341;19;20123;-50
2022/02/19 10:00:01;;;;;;;4.80;1.30;;;;;;;1.05;100.00;99301.34;7392411;19;20137;-53
2022/02/19 10:02:37;;;;;;;2.72;0.75;;;;;;;1.17;100.00;99312.22;7385942;19;20671;-52
2022/02/19 10:05:18;;;;;;;19.35;3.13;;;;;;;1.27;100.00;99335.63;7390037;19;20680;-53
2022/02/19 10:08:03;;;;;;;8.85;1.85;;;;;;;1.20;100.00;99320.03;7388376;19;20555;-51
2022/02/19 10:10:35;;;;;;;6.70;1.85;;;;;;;1.06;100.00;99320.88;7390310;19;20135;-51
2022/02/19 10:13:13;;;;;;;6.97;2.25;;;;;;;1.01;100.00;99333.34;7387617;19;20190;-47
2022/02/19 10:15:49;;;;;;;7.65;1.70;;;;;;;0.62;100.00;99364.09;7389232;19;20167;-51
2022/02/19 10:18:26;;;;;;;17.85;2.70;;;;;;;0.67;100.00;99337.34;7382953;19;20198;-54
2022/02/19 10:20:58;;;;;;;14.80;2.50;;;;;;;0.77;100.00;99330.28;7398846;19;20138;-53
2022/02/19 10:23:27;;;;;;;9.20;1.10;;;;;;;0.74;100.00;99327.53;7395041;19;20569;-53
2022/02/19 10:26:04;;;;;;;11.40;1.20;;;;;;;0.81;100.00;99502.31;7398637;19;20202;-54
2022/02/19 10:28:38;;;;;;;9.50;1.50;;;;;;;0.90;100.00;99507.97;7395361;19;20717;-52
2022/02/19 10:31:16;;;;;;;2.60;0.70;;;;;;;0.97;100.00;99523.59;7398788;19;20486;-50
2022/02/19 10:33:48;;;;;;;5.95;1.08;;;;;;;1.15;100.00;99522.16;7393625;19;20618;-54
2022/02/19 10:36:20;;;;;;;1.92;0.80;;;;;;;1.26;100.00;99537.16;7398159;19;20210;-50
2022/02/19 10:38:57;;;;;;;3.77;0.80;;;;;;;1.36;100.00;99536.91;7393462;19;20192;-50
2022/02/19 10:41:37;;;;;;;4.78;1.33;;;;;;;1.42;100.00;99539.81;7398276;19;20388;-54
2022/02/19 10:44:28;;;;;;;3.45;0.90;;;;;;;1.61;100.00;99545.97;7396363;19;20234;-53
2022/02/19 10:46:59;;;;;;;4.43;1.43;;;;;;;1.67;100.00;99546.34;7396236;19;20127;-51
2022/02/19 11:01:22;;;;;;;7.10;2.63;;;;;;;2.29;100.00;99504.00;7426730;19;20262;-52
2022/02/19 11:03:50;;;;;;;7.30;2.00;;;;;;;2.37;100.00;99512.03;7422572;19;20471;-52
2022/02/19 11:06:19;;;;;;;5.83;1.50;;;;;;;2.41;100.00;99516.53;7426878;19;20419;-54
2022/02/19 11:08:47;;;;;;;18.50;1.70;;;;;;;2.50;100.00;99505.06;7418395;19;20757;-58
2022/02/19 11:11:16;;;;;;;9.33;1.93;;;;;;;2.49;100.00;99516.94;7422186;19;20397;-55
2022/02/19 11:13:45;;;;;;;15.10;2.27;;;;;;;2.61;100.00;99511.63;7417397;19;20407;-54
2022/02/19 11:16:13;;;;;;;5.20;1.10;;;;;;;2.73;100.00;99508.00;7416789;19;20414;-53
2022/02/19 11:21:20;;;;;;;7.43;1.97;;;;;;;2.56;100.00;99475.72;7423877;19;20782;-53
2022/02/19 11:23:49;;;;;;;24.13;3.23;;;;;;;2.61;100.00;99475.13;7422694;19;20453;-51
2022/02/19 11:26:19;;;;;;;9.03;1.70;;;;;;;2.60;100.00;99483.56;7429963;19;20390;-54
2022/02/19 11:28:48;;;;;;;5.90;0.80;;;;;;;2.61;100.00;99452.19;7420906;19;20414;-53
2022/02/19 11:31:16;;;;;;;16.13;3.93;;;;;;;2.62;100.00;99453.94;7421021;19;20379;-49
2022/02/19 11:33:46;;;;;;;7.83;1.17;;;;;;;2.71;100.00;99451.88;7416103;19;20421;-47
2022/02/19 11:36:26;;;;;;;3.10;1.13;;;;;;;2.73;100.00;99465.56;7416551;19;21009;-53
2022/02/19 11:43:59;;;;;;;5.27;1.03;;;;;;;2.92;100.00;99423.22;7423683;19;21025;-49
2022/02/19 11:46:36;;;;;;;5.23;1.57;;;;;;;3.04;100.00;99406.00;7428128;19;20391;-51
2022/02/19 11:49:22;;;;;;;6.03;2.33;;;;;;;3.19;100.00;99389.72;7423780;19;20434;-48
2022/02/19 11:52:15;;;;;;;3.80;2.00;;;;;;;3.19;100.00;99379.53;7424331;19;20403;-52
2022/02/19 11:55:34;;;;;;;5.30;1.40;;;;;;;3.19;100.00;99349.78;7420468;19;20437;-57
2022/02/19 11:58:06;;;;;;;2.60;1.03;;;;;;;3.20;100.00;99354.13;7413285;19;20954;-54
2022/02/19 12:04:19;;;;;;;3.60;1.27;;;;;;;3.06;100.00;99434.97;7421474;19;20484;-53
2022/02/19 12:06:48;;;;;;;9.63;1.70;;;;;;;3.05;100.00;99443.44;7425364;19;21251;-48
2022/02/19 12:09:17;;;;;;;4.47;1.57;;;;;;;3.04;100.00;99461.19;7419716;19;20455;-49
2022/02/19 12:12:07;;;;;;;7.57;1.60;;;;;;;3.11;100.00;99478.53;7423872;19;20406;-49
2022/02/19 12:14:50;;;;;;;3.40;0.67;;;;;;;2.91;100.00;99514.06;7421340;19;20409;-53
2022/02/19 12:17:24;;;;;;;5.13;1.67;;;;;;;2.93;100.00;99539.63;7415429;19;20396;-53
2022/02/19 12:20:02;;;;;;;4.10;2.70;;;;;;;3.01;100.00;99551.09;7415585;19;20527;-49
2022/02/19 12:27:35;;;;;;;3.93;1.00;;;;;;;2.98;100.00;99571.34;7420571;19;20497;-52
2022/02/19 12:30:19;;;;;;;8.37;1.30;;;;;;;2.91;100.00;99590.50;7423742;19;20411;-54